createdAt,value
2018-08-23T00:00:43.515Z,29.43
2018-08-23T00:01:49.018Z,31.73
2018-08-23T00:02:55.414Z,31.60
2018-08-23T00:04:05.733Z,33.30
2018-08-23T00:05:11.234Z,34.10
2018-08-23T00:06:16.851Z,33.73
2018-08-23T00:07:22.607Z,31.70
2018-08-23T00:08:28.086Z,33.57
2018-08-23T00:09:35.658Z,31.77
2018-08-23T00:10:41.125Z,33.93
2018-08-23T00:11:47.711Z,32.87
2018-08-23T00:12:59.716Z,33.83
2018-08-23T00:14:05.297Z,30.53
2018-08-23T00:15:15.244Z,35.50
2018-08-23T00:16:33.763Z,33.10
2018-08-23T00:17:46.071Z,33.43
2018-08-23T00:18:51.693Z,33.27
2018-08-23T00:19:57.508Z,31.80
2018-08-23T00:21:03.707Z,33.07
2018-08-23T00:22:12.287Z,35.50
2018-08-23T00:23:18.347Z,32.43
2018-08-23T00:24:24.637Z,32.87
2018-08-23T00:25:30.282Z,32.90
2018-08-23T00:26:36.544Z,31.80
2018-08-23T00:27:43.375Z,33.73
2018-08-23T00:28:48.958Z,32.47
2018-08-23T00:29:54.489Z,32.60
2018-08-23T00:31:00.102Z,33.50
2018-08-23T00:32:07.783Z,37.20
2018-08-23T00:33:13.237Z,39.30
2018-08-23T00:34:18.773Z,36.37
2018-08-23T00:35:25.091Z,32.70
2018-08-23T00:36:30.696Z,35.10
2018-08-23T00:37:38.593Z,35.93
2018-08-23T00:38:44.197Z,31.80
2018-08-23T00:39:49.809Z,34.90
2018-08-23T00:40:55.250Z,32.67
2018-08-23T00:42:05.494Z,35.70
2018-08-23T00:43:12.874Z,35.90
2018-08-23T00:44:18.961Z,35.57
2018-08-23T00:45:24.488Z,35.63
2018-08-23T00:46:30.033Z,35.57
2018-08-23T00:47:35.576Z,36.00
2018-08-23T00:48:41.025Z,35.03
2018-08-23T00:49:47.005Z,35.07
2018-08-23T00:50:57.593Z,35.20
2018-08-23T00:52:03.297Z,35.67
2018-08-23T00:53:08.806Z,33.90
2018-08-23T00:54:15.402Z,34.47
2018-08-23T00:55:27.678Z,34.30
2018-08-23T00:56:33.173Z,33.83
2018-08-23T00:57:38.877Z,33.80
2018-08-23T00:59:03.369Z,38.07
2018-08-23T01:00:08.939Z,38.30
2018-08-23T01:01:15.597Z,35.70
2018-08-23T01:02:21.053Z,36.00
2018-08-23T01:03:26.568Z,34.00
2018-08-23T01:04:33.550Z,34.63
2018-08-23T01:05:40.288Z,32.37
2018-08-23T01:06:46.366Z,34.47
2018-08-23T01:07:52.968Z,33.90
2018-08-23T01:08:58.642Z,33.97
2018-08-23T01:10:04.137Z,33.60
2018-08-23T01:11:10.592Z,37.77
2018-08-23T01:12:16.300Z,35.77
2018-08-23T01:13:21.837Z,34.80
2018-08-23T01:14:27.316Z,37.97
2018-08-23T01:15:33.454Z,35.70
2018-08-23T01:16:38.938Z,36.30
2018-08-23T01:17:44.537Z,41.33
2018-08-23T01:18:50.232Z,36.70
2018-08-23T01:19:59.530Z,35.83
2018-08-23T01:21:09.812Z,34.10
2018-08-23T01:22:15.388Z,32.10
2018-08-23T01:23:22.394Z,34.50
2018-08-23T01:24:31.442Z,32.90
2018-08-23T01:25:39.213Z,34.37
2018-08-23T01:26:45.595Z,33.77
2018-08-23T01:27:51.131Z,33.87
2018-08-23T01:28:56.560Z,30.83
2018-08-23T01:30:02.063Z,33.70
2018-08-23T01:31:28.868Z,35.60
2018-08-23T01:32:34.477Z,35.90
2018-08-23T01:33:39.918Z,35.10
2018-08-23T01:34:45.877Z,38.00
2018-08-23T01:35:52.359Z,38.97
2018-08-23T01:36:57.862Z,39.63
2018-08-23T01:38:03.317Z,40.30
2018-08-23T01:39:13.369Z,42.73
2018-08-23T01:40:18.935Z,38.73
2018-08-23T01:41:24.468Z,41.57
2018-08-23T01:42:35.217Z,37.00
2018-08-23T01:43:43.213Z,37.77
2018-08-23T01:44:49.739Z,38.53
2018-08-23T01:45:55.350Z,39.20
2018-08-23T01:47:03.244Z,40.57
2018-08-23T01:48:09.977Z,39.97
2018-08-23T01:49:15.608Z,39.10
2018-08-23T01:50:21.129Z,39.27
2018-08-23T01:51:26.556Z,37.83
2018-08-23T01:52:33.341Z,39.57
2018-08-23T01:53:39.546Z,39.50
2018-08-23T01:54:46.243Z,40.67
2018-08-23T01:55:51.749Z,38.90
2018-08-23T01:56:57.812Z,40.00
2018-08-23T01:58:03.286Z,39.53
2018-08-23T01:59:08.726Z,38.10
2018-08-23T02:00:18.167Z,37.83
2018-08-23T02:01:23.712Z,39.80
2018-08-23T02:02:29.281Z,41.00
2018-08-23T02:03:34.813Z,40.17
2018-08-23T02:04:40.314Z,36.87
2018-08-23T02:05:46.895Z,38.30
2018-08-23T02:06:52.516Z,37.37
2018-08-23T02:07:58.028Z,37.83
2018-08-23T02:09:04.377Z,36.73
2018-08-23T02:10:10.094Z,39.60
2018-08-23T02:11:16.106Z,37.53
2018-08-23T02:12:21.747Z,38.87
2018-08-23T02:13:28.981Z,37.67
2018-08-23T02:14:38.469Z,36.23
2018-08-23T02:15:48.897Z,36.63
2018-08-23T02:16:54.662Z,36.33
2018-08-23T02:18:00.111Z,35.93
2018-08-23T02:19:05.805Z,34.93
2018-08-23T02:20:11.330Z,35.37
2018-08-23T02:21:16.959Z,35.80
2018-08-23T02:22:22.449Z,36.33
2018-08-23T02:23:27.877Z,37.70
2018-08-23T02:24:36.125Z,35.07
2018-08-23T02:25:42.080Z,36.73
2018-08-23T02:26:47.639Z,36.47
2018-08-23T02:28:03.832Z,36.33
2018-08-23T02:29:09.322Z,34.60
2018-08-23T02:30:15.326Z,37.90
2018-08-23T02:31:20.826Z,37.00
2018-08-23T02:32:26.433Z,40.40
2018-08-23T02:33:31.896Z,40.17
2018-08-23T02:34:43.890Z,36.87
2018-08-23T02:36:19.390Z,36.10
2018-08-23T02:37:25.076Z,34.13
2018-08-23T02:38:30.837Z,34.97
2018-08-23T02:39:36.381Z,37.17
2018-08-23T02:40:41.939Z,42.93
2018-08-23T02:41:48.434Z,41.87
2018-08-23T02:42:54.054Z,43.40
2018-08-23T02:43:59.673Z,39.73
2018-08-23T02:45:09.229Z,37.27
2018-08-23T02:46:14.884Z,36.80
2018-08-23T02:47:20.441Z,37.90
2018-08-23T02:48:25.988Z,39.33
2018-08-23T02:49:32.085Z,38.30
2018-08-23T02:50:37.755Z,41.27
2018-08-23T02:51:48.234Z,41.40
2018-08-23T02:52:53.850Z,38.57
2018-08-23T02:53:59.551Z,39.27
2018-08-23T02:55:05.137Z,39.30
2018-08-23T02:56:14.168Z,37.80
2018-08-23T02:57:19.673Z,41.70
2018-08-23T02:58:26.161Z,38.97
2018-08-23T02:59:32.062Z,39.40
2018-08-23T03:00:42.721Z,39.80
2018-08-23T03:01:50.346Z,39.33
2018-08-23T03:02:55.995Z,39.80
2018-08-23T03:04:12.975Z,40.97
2018-08-23T03:05:22.592Z,38.90
2018-08-23T03:06:34.872Z,35.63
2018-08-23T03:07:41.029Z,34.53
2018-08-23T03:08:46.859Z,33.57
2018-08-23T03:09:52.329Z,33.10
2018-08-23T03:10:57.814Z,36.27
2018-08-23T03:12:18.838Z,35.93
2018-08-23T03:13:27.001Z,35.47
2018-08-23T03:14:32.454Z,34.83
2018-08-23T03:15:37.940Z,34.97
2018-08-23T03:17:14.114Z,32.83
2018-08-23T03:18:19.682Z,32.80
2018-08-23T03:19:25.146Z,32.57
2018-08-23T03:20:30.729Z,34.97
2018-08-23T03:21:36.217Z,34.97
2018-08-23T03:22:42.444Z,36.10
2018-08-23T03:23:48.173Z,35.67
2018-08-23T03:24:55.390Z,34.50
2018-08-23T03:26:00.808Z,35.17
2018-08-23T03:27:06.262Z,33.80
2018-08-23T03:28:12.286Z,33.30
2018-08-23T03:29:18.010Z,30.60
2018-08-23T03:30:24.214Z,30.90
2018-08-23T03:31:29.658Z,30.80
2018-08-23T03:32:35.085Z,30.17
2018-08-23T03:33:40.514Z,31.07
2018-08-23T03:34:46.099Z,33.13
2018-08-23T03:35:53.621Z,36.40
2018-08-23T03:36:59.193Z,36.07
2018-08-23T03:38:04.682Z,33.03
2018-08-23T03:39:10.681Z,32.33
2018-08-23T03:40:17.139Z,33.87
2018-08-23T03:41:23.764Z,32.67
2018-08-23T03:42:29.589Z,32.70
2018-08-23T03:43:35.123Z,33.27
2018-08-23T03:44:40.589Z,33.63
2018-08-23T03:45:46.662Z,31.77
2018-08-23T03:46:55.417Z,32.80
2018-08-23T03:48:00.889Z,33.40
2018-08-23T03:49:06.592Z,33.57
2018-08-23T03:50:12.008Z,34.80
2018-08-23T03:51:18.004Z,33.67
2018-08-23T03:52:27.529Z,32.57
2018-08-23T03:53:49.180Z,35.10
2018-08-23T03:54:59.720Z,32.13
2018-08-23T03:56:10.162Z,34.40
2018-08-23T03:57:18.481Z,33.27
2018-08-23T03:58:24.024Z,33.90
2018-08-23T03:59:29.757Z,32.97
2018-08-23T04:00:40.321Z,33.63
2018-08-23T04:01:45.902Z,34.70
2018-08-23T04:02:52.269Z,36.20
2018-08-23T04:03:57.954Z,37.37
2018-08-23T04:05:12.311Z,34.10
2018-08-23T04:06:32.528Z,39.47
2018-08-23T04:07:39.577Z,37.70
2018-08-23T04:08:46.574Z,34.57
2018-08-23T04:09:52.468Z,38.67
2018-08-23T04:10:57.873Z,35.50
2018-08-23T04:12:05.651Z,37.90
2018-08-23T04:13:11.263Z,41.10
2018-08-23T04:14:17.195Z,38.33
2018-08-23T04:15:26.077Z,38.27
2018-08-23T04:16:32.634Z,37.57
2018-08-23T04:17:38.069Z,37.40
2018-08-23T04:18:43.588Z,37.57
2018-08-23T04:19:50.394Z,39.23
2018-08-23T04:20:57.458Z,38.90
2018-08-23T04:22:02.930Z,40.27
2018-08-23T04:23:08.385Z,38.33
2018-08-23T04:24:14.029Z,41.30
2018-08-23T04:25:19.858Z,39.90
2018-08-23T04:26:26.543Z,35.37
2018-08-23T04:27:31.963Z,41.00
2018-08-23T04:28:37.429Z,42.03
2018-08-23T04:29:47.942Z,45.10
2018-08-23T04:30:53.411Z,46.07
2018-08-23T04:31:58.933Z,44.07
2018-08-23T04:33:04.408Z,45.73
2018-08-23T04:34:09.871Z,46.30
2018-08-23T04:35:34.636Z,46.70
2018-08-23T04:36:40.507Z,42.57
2018-08-23T04:37:46.271Z,39.40
2018-08-23T04:38:55.762Z,40.47
2018-08-23T04:40:06.210Z,40.90
2018-08-23T04:41:13.666Z,40.00
2018-08-23T04:42:19.534Z,41.10
2018-08-23T04:43:25.418Z,37.83
2018-08-23T04:44:42.721Z,40.43
2018-08-23T04:45:48.521Z,41.30
2018-08-23T04:46:54.049Z,39.77
2018-08-23T04:48:09.509Z,40.30
2018-08-23T04:49:15.116Z,38.60
2018-08-23T04:50:20.745Z,39.80
2018-08-23T04:51:26.224Z,39.73
2018-08-23T04:52:31.710Z,39.70
2018-08-23T04:53:37.162Z,38.80
2018-08-23T04:54:42.657Z,38.73
2018-08-23T04:55:48.191Z,38.93
2018-08-23T04:56:53.831Z,38.70
2018-08-23T04:58:00.283Z,41.00
2018-08-23T04:59:06.154Z,38.60
2018-08-23T05:00:11.636Z,40.20
2018-08-23T05:01:17.384Z,38.57
2018-08-23T05:02:22.970Z,38.77
2018-08-23T05:03:28.441Z,39.87
2018-08-23T05:04:33.961Z,37.90
2018-08-23T05:05:39.366Z,38.07
2018-08-23T05:06:45.151Z,38.03
2018-08-23T05:07:50.731Z,34.70
2018-08-23T05:08:56.139Z,36.93
2018-08-23T05:10:01.809Z,35.30
2018-08-23T05:11:07.451Z,34.13
2018-08-23T05:12:13.014Z,36.20
2018-08-23T05:13:18.514Z,35.60
2018-08-23T05:14:23.969Z,37.60
2018-08-23T05:15:29.504Z,34.63
2018-08-23T05:16:35.101Z,38.80
2018-08-23T05:17:41.077Z,36.93
2018-08-23T05:18:46.682Z,34.63
2018-08-23T05:19:52.208Z,39.10
2018-08-23T05:20:57.687Z,38.20
2018-08-23T05:22:03.106Z,36.27
2018-08-23T05:23:08.620Z,37.53
2018-08-23T05:24:14.766Z,36.80
2018-08-23T05:25:22.455Z,36.63
2018-08-23T05:26:27.985Z,37.67
2018-08-23T05:27:35.372Z,38.83
2018-08-23T05:28:43.637Z,38.50
2018-08-23T05:29:49.161Z,37.90
2018-08-23T05:30:54.773Z,37.90
2018-08-23T05:32:00.269Z,38.23
2018-08-23T05:33:09.913Z,34.27
2018-08-23T05:34:15.493Z,41.10
2018-08-23T05:35:21.177Z,41.27
2018-08-23T05:36:26.634Z,41.37
2018-08-23T05:37:32.053Z,39.10
2018-08-23T05:38:37.533Z,45.33
2018-08-23T05:39:52.365Z,42.63
2018-08-23T05:41:02.941Z,39.90
2018-08-23T05:42:08.413Z,39.80
2018-08-23T05:43:14.698Z,38.90
2018-08-23T05:44:20.810Z,39.93
2018-08-23T05:45:37.019Z,38.60
2018-08-23T05:46:47.841Z,36.97
2018-08-23T05:47:53.350Z,39.63
2018-08-23T05:48:58.782Z,39.00
2018-08-23T05:50:04.272Z,39.70
2018-08-23T05:51:12.056Z,37.50
2018-08-23T05:52:17.636Z,39.07
2018-08-23T05:53:23.113Z,39.20
2018-08-23T05:54:28.618Z,40.17
2018-08-23T05:55:34.069Z,37.07
2018-08-23T05:56:39.545Z,37.67
2018-08-23T05:57:45.277Z,38.37
2018-08-23T05:58:50.924Z,37.97
2018-08-23T05:59:56.624Z,40.40
2018-08-23T06:01:02.554Z,35.90
2018-08-23T06:02:08.078Z,39.03
2018-08-23T06:03:14.964Z,39.53
2018-08-23T06:04:36.013Z,38.83
2018-08-23T06:05:41.448Z,37.87
2018-08-23T06:06:47.017Z,40.50
2018-08-23T06:07:52.542Z,37.30
2018-08-23T06:09:00.699Z,39.23
2018-08-23T06:10:06.318Z,37.27
2018-08-23T06:11:12.850Z,38.47
2018-08-23T06:12:18.464Z,38.20
2018-08-23T06:13:24.089Z,37.90
2018-08-23T06:14:29.572Z,36.23
2018-08-23T06:15:39.152Z,37.00
2018-08-23T06:16:49.491Z,36.50
2018-08-23T06:17:54.943Z,37.70
2018-08-23T06:19:00.580Z,38.30
2018-08-23T06:20:06.583Z,37.47
2018-08-23T06:21:12.059Z,37.20
2018-08-23T06:22:17.614Z,38.70
2018-08-23T06:23:27.639Z,38.40
2018-08-23T06:24:33.141Z,38.10
2018-08-23T06:25:38.651Z,40.57
2018-08-23T06:26:49.426Z,36.97
2018-08-23T06:27:55.285Z,38.60
2018-08-23T06:29:00.765Z,37.07
2018-08-23T06:30:06.943Z,38.57
2018-08-23T06:31:12.512Z,40.60
2018-08-23T06:32:18.936Z,40.97
2018-08-23T06:33:41.013Z,38.27
2018-08-23T06:34:53.300Z,38.97
2018-08-23T06:35:58.825Z,39.63
2018-08-23T06:37:04.789Z,41.07
2018-08-23T06:38:10.213Z,39.90
2018-08-23T06:39:15.718Z,38.93
2018-08-23T06:40:21.290Z,37.80
2018-08-23T06:41:26.790Z,38.53
2018-08-23T06:42:46.399Z,39.43
2018-08-23T06:43:51.897Z,35.87
2018-08-23T06:44:57.353Z,40.13
2018-08-23T06:46:03.403Z,38.23
2018-08-23T06:47:10.326Z,38.50
2018-08-23T06:48:15.802Z,39.27
2018-08-23T06:49:21.268Z,39.93
2018-08-23T06:50:27.150Z,37.87
2018-08-23T06:51:32.633Z,37.07
2018-08-23T06:52:43.418Z,36.40
2018-08-23T06:53:52.776Z,37.20
2018-08-23T06:54:58.241Z,35.70
2018-08-23T06:56:03.715Z,37.57
2018-08-23T06:57:09.767Z,34.97
2018-08-23T06:58:15.403Z,35.97
2018-08-23T06:59:20.962Z,36.23
2018-08-23T07:00:27.032Z,37.03
2018-08-23T07:01:39.292Z,38.37
2018-08-23T07:02:47.920Z,35.80
2018-08-23T07:03:58.126Z,34.23
2018-08-23T07:05:03.631Z,35.80
2018-08-23T07:06:09.183Z,33.13
2018-08-23T07:07:18.137Z,34.50
2018-08-23T07:08:24.897Z,33.80
2018-08-23T07:09:33.041Z,33.73
2018-08-23T07:10:38.537Z,34.70
2018-08-23T07:11:44.357Z,34.50
2018-08-23T07:12:50.195Z,34.63
2018-08-23T07:14:00.893Z,34.33
2018-08-23T07:15:06.657Z,33.30
2018-08-23T07:16:12.378Z,31.90
2018-08-23T07:17:22.947Z,32.70
2018-08-23T07:18:29.876Z,34.13
2018-08-23T07:19:35.334Z,32.10
2018-08-23T07:20:40.900Z,35.00
2018-08-23T07:21:46.484Z,35.77
2018-08-23T07:22:51.961Z,33.80
2018-08-23T07:23:57.435Z,33.57
2018-08-23T07:25:02.919Z,35.60
2018-08-23T07:26:08.436Z,32.50
2018-08-23T07:27:15.110Z,34.03
2018-08-23T07:28:20.862Z,33.53
2018-08-23T07:29:26.350Z,34.17
2018-08-23T07:30:31.970Z,35.90
2018-08-23T07:31:42.025Z,35.03
2018-08-23T07:32:49.028Z,35.90
2018-08-23T07:33:54.493Z,37.20
2018-08-23T07:35:05.729Z,35.50
2018-08-23T07:36:25.123Z,35.90
2018-08-23T07:37:31.632Z,37.10
2018-08-23T07:38:37.153Z,36.50
2018-08-23T07:39:46.700Z,35.70
2018-08-23T07:40:52.349Z,36.17
2018-08-23T07:41:57.839Z,37.60
2018-08-23T07:43:03.748Z,37.80
2018-08-23T07:44:09.170Z,36.60
2018-08-23T07:45:14.873Z,36.63
2018-08-23T07:46:20.398Z,36.87
2018-08-23T07:47:26.166Z,38.07
2018-08-23T07:48:31.775Z,36.00
2018-08-23T07:49:37.280Z,37.67
2018-08-23T07:50:42.691Z,36.80
2018-08-23T07:51:48.240Z,38.00
2018-08-23T07:52:54.634Z,36.10
2018-08-23T07:54:04.208Z,38.43
2018-08-23T07:55:09.814Z,36.07
2018-08-23T07:56:25.105Z,38.13
2018-08-23T07:57:33.470Z,36.27
2018-08-23T07:58:39.062Z,37.27
2018-08-23T07:59:44.681Z,38.27
2018-08-23T08:00:50.335Z,36.93
2018-08-23T08:01:55.850Z,39.00
2018-08-23T08:03:01.392Z,35.07
2018-08-23T08:04:10.909Z,36.37
2018-08-23T08:05:17.159Z,35.80
2018-08-23T08:06:23.802Z,36.30
2018-08-23T08:07:31.491Z,34.50
2018-08-23T08:08:38.025Z,35.33
2018-08-23T08:09:44.111Z,33.70
2018-08-23T08:10:49.832Z,34.67
2018-08-23T08:12:01.684Z,33.17
2018-08-23T08:13:07.369Z,32.67
2018-08-23T08:14:18.009Z,35.20
2018-08-23T08:15:23.649Z,32.40
2018-08-23T08:16:32.989Z,35.33
2018-08-23T08:17:38.652Z,33.57
2018-08-23T08:18:44.154Z,34.90
2018-08-23T08:19:58.821Z,34.20
2018-08-23T08:21:04.819Z,33.50
2018-08-23T08:22:10.402Z,34.10
2018-08-23T08:23:17.225Z,32.03
2018-08-23T08:24:22.737Z,34.10
2018-08-23T08:25:28.187Z,32.87
2018-08-23T08:26:33.861Z,33.77
2018-08-23T08:27:40.282Z,33.87
2018-08-23T08:28:45.892Z,34.40
2018-08-23T08:29:51.409Z,34.60
2018-08-23T08:30:59.699Z,34.70
2018-08-23T08:32:05.305Z,36.13
2018-08-23T08:33:13.871Z,34.53
2018-08-23T08:34:19.521Z,34.97
2018-08-23T08:35:24.990Z,36.17
2018-08-23T08:36:31.717Z,34.50
2018-08-23T08:37:37.212Z,34.40
2018-08-23T08:38:42.734Z,34.60
2018-08-23T08:39:48.272Z,37.20
2018-08-23T08:40:54.793Z,36.30
2018-08-23T08:42:00.910Z,35.33
2018-08-23T08:43:07.028Z,34.23
2018-08-23T08:44:12.959Z,34.90
2018-08-23T08:45:18.571Z,33.67
2018-08-23T08:46:24.206Z,34.50
2018-08-23T08:47:29.666Z,34.17
2018-08-23T08:48:35.986Z,34.40
2018-08-23T08:49:41.869Z,33.90
2018-08-23T08:51:05.898Z,34.70
2018-08-23T08:52:11.488Z,32.43
2018-08-23T08:53:16.997Z,33.20
2018-08-23T08:54:23.431Z,34.03
2018-08-23T08:55:29.246Z,32.97
2018-08-23T08:56:41.502Z,33.30
2018-08-23T08:57:47.951Z,32.90
2018-08-23T08:58:53.968Z,32.97
2018-08-23T08:59:59.803Z,33.33
2018-08-23T09:01:05.864Z,36.33
2018-08-23T09:02:11.270Z,34.13
2018-08-23T09:03:17.010Z,34.13
2018-08-23T09:04:27.597Z,35.17
2018-08-23T09:05:33.151Z,35.33
2018-08-23T09:06:45.901Z,34.10
2018-08-23T09:07:51.489Z,33.97
2018-08-23T09:08:56.972Z,33.70
2018-08-23T09:10:02.560Z,33.00
2018-08-23T09:11:08.226Z,31.60
2018-08-23T09:12:14.536Z,32.37
2018-08-23T09:13:21.017Z,35.03
2018-08-23T09:14:26.993Z,36.27
2018-08-23T09:15:32.495Z,33.50
2018-08-23T09:16:37.960Z,32.83
2018-08-23T09:17:44.809Z,31.97
2018-08-23T09:19:02.128Z,33.93
2018-08-23T09:20:14.185Z,33.83
2018-08-23T09:21:19.873Z,31.57
2018-08-23T09:22:25.384Z,32.37
2018-08-23T09:23:30.873Z,30.17
2018-08-23T09:24:37.119Z,33.07
2018-08-23T09:25:43.729Z,30.97
2018-08-23T09:26:49.902Z,32.10
2018-08-23T09:27:55.345Z,30.30
2018-08-23T09:29:00.847Z,31.77
2018-08-23T09:30:11.566Z,32.20
2018-08-23T09:31:17.515Z,31.17
2018-08-23T09:32:28.225Z,31.00
2018-08-23T09:33:33.762Z,32.10
2018-08-23T09:34:40.316Z,31.27
2018-08-23T09:35:45.905Z,30.80
2018-08-23T09:36:51.810Z,30.63
2018-08-23T09:37:58.408Z,30.50
2018-08-23T09:39:04.001Z,30.27
2018-08-23T09:40:09.891Z,31.27
2018-08-23T09:41:15.553Z,28.53
2018-08-23T09:42:21.071Z,29.87
2018-08-23T09:43:26.600Z,27.70
2018-08-23T09:44:32.036Z,31.23
2018-08-23T09:45:38.539Z,31.53
2018-08-23T09:46:52.814Z,31.30
2018-08-23T09:47:58.210Z,29.37
2018-08-23T09:49:03.752Z,29.43
2018-08-23T09:50:09.321Z,30.10
2018-08-23T09:51:20.188Z,29.77
2018-08-23T09:52:30.742Z,30.10
2018-08-23T09:53:36.182Z,30.50
2018-08-23T09:54:41.612Z,28.30
2018-08-23T09:55:48.848Z,28.13
2018-08-23T09:56:54.477Z,29.53
2018-08-23T09:58:00.370Z,30.43
2018-08-23T09:59:05.853Z,31.37
2018-08-23T10:00:15.538Z,29.43
2018-08-23T10:01:26.285Z,29.20
2018-08-23T10:02:37.004Z,29.87
2018-08-23T10:03:47.558Z,29.93
2018-08-23T10:04:56.394Z,31.80
2018-08-23T10:07:04.977Z,30.20
2018-08-23T10:08:15.851Z,28.87
2018-08-23T10:09:23.545Z,31.47
2018-08-23T10:10:34.098Z,31.50
2018-08-23T10:11:44.745Z,32.47
2018-08-23T10:12:55.410Z,34.60
2018-08-23T10:14:06.009Z,34.10
2018-08-23T10:15:16.720Z,33.37
2018-08-23T10:16:27.485Z,31.23
2018-08-23T10:17:38.090Z,31.67
2018-08-23T10:18:48.906Z,34.93
2018-08-23T10:19:59.497Z,32.03
2018-08-23T10:21:05.108Z,34.00
2018-08-23T10:22:15.722Z,35.30
2018-08-23T10:23:24.078Z,34.77
2018-08-23T10:24:33.161Z,33.00
2018-08-23T10:25:44.560Z,33.80
2018-08-23T10:26:50.219Z,35.23
2018-08-23T10:27:55.750Z,33.63
2018-08-23T10:29:01.233Z,34.53
2018-08-23T10:30:06.841Z,35.70
2018-08-23T10:31:12.399Z,36.30
2018-08-23T10:32:17.964Z,34.80
2018-08-23T10:33:23.497Z,34.33
2018-08-23T10:34:29.062Z,32.77
2018-08-23T10:35:34.973Z,34.57
2018-08-23T10:36:40.474Z,34.37
2018-08-23T10:37:46.006Z,35.00
2018-08-23T10:38:51.529Z,34.80
2018-08-23T10:39:57.055Z,33.97
2018-08-23T10:41:05.182Z,34.10
2018-08-23T10:42:17.886Z,34.90
2018-08-23T10:43:28.648Z,34.40
2018-08-23T10:44:34.191Z,32.17
2018-08-23T10:45:40.263Z,34.67
2018-08-23T10:46:51.551Z,31.90
2018-08-23T10:48:02.261Z,33.67
2018-08-23T10:49:07.812Z,34.40
2018-08-23T10:50:13.352Z,33.70
2018-08-23T10:51:18.841Z,31.90
2018-08-23T10:52:24.397Z,31.17
2018-08-23T10:53:29.818Z,35.80
2018-08-23T10:54:35.665Z,32.97
2018-08-23T10:55:41.461Z,34.37
2018-08-23T10:56:47.037Z,33.07
2018-08-23T10:57:52.737Z,34.57
2018-08-23T10:58:58.196Z,34.37
2018-08-23T11:00:03.907Z,33.10
2018-08-23T11:01:09.374Z,32.83
2018-08-23T11:02:15.058Z,36.07
2018-08-23T11:03:20.654Z,32.93
2018-08-23T11:04:26.140Z,32.23
2018-08-23T11:05:31.606Z,32.00
2018-08-23T11:06:41.230Z,33.60
2018-08-23T11:07:51.981Z,32.03
2018-08-23T11:09:02.638Z,29.80
2018-08-23T11:10:13.294Z,29.73
2018-08-23T11:11:23.866Z,28.87
2018-08-23T11:12:35.360Z,30.43
2018-08-23T11:13:48.099Z,30.70
2018-08-23T11:14:53.605Z,28.80
2018-08-23T11:16:04.177Z,29.13
2018-08-23T11:17:15.130Z,29.80
2018-08-23T11:18:25.828Z,28.03
2018-08-23T11:20:39.001Z,27.73
2018-08-23T11:21:44.453Z,27.47
2018-08-23T11:22:49.923Z,27.67
2018-08-23T11:23:55.505Z,27.83
2018-08-23T11:25:01.322Z,29.43
2018-08-23T11:26:06.832Z,26.30
2018-08-23T11:27:12.321Z,26.77
2018-08-23T11:28:22.405Z,27.50
2018-08-23T11:29:28.183Z,26.00
2018-08-23T11:30:33.714Z,28.13
2018-08-23T11:31:39.393Z,25.37
2018-08-23T11:32:45.373Z,25.80
2018-08-23T11:33:50.862Z,26.83
2018-08-23T11:34:56.478Z,27.77
2018-08-23T11:36:01.954Z,26.37
2018-08-23T11:37:07.497Z,26.77
2018-08-23T11:38:13.025Z,25.53
2018-08-23T11:39:18.966Z,26.53
2018-08-23T11:40:24.437Z,25.73
2018-08-23T11:41:30.055Z,23.47
2018-08-23T11:42:35.635Z,24.10
2018-08-23T11:43:41.622Z,22.07
2018-08-23T11:44:47.161Z,21.93
2018-08-23T11:46:26.277Z,20.30
2018-08-23T11:47:31.733Z,25.80
2018-08-23T11:48:37.241Z,24.57
2018-08-23T11:49:42.742Z,24.37
2018-08-23T11:50:48.298Z,24.00
2018-08-23T11:51:54.119Z,23.53
2018-08-23T11:52:59.703Z,24.40
2018-08-23T11:54:05.233Z,23.83
2018-08-23T11:55:10.687Z,25.93
2018-08-23T11:56:16.357Z,25.50
2018-08-23T11:57:21.883Z,24.80
2018-08-23T11:58:27.370Z,23.20
2018-08-23T11:59:32.914Z,23.90
2018-08-23T12:00:38.466Z,25.97
2018-08-23T12:01:44.094Z,25.13
2018-08-23T12:02:49.941Z,24.47
2018-08-23T12:03:55.466Z,24.70
2018-08-23T12:05:01.794Z,23.97
2018-08-23T12:06:08.717Z,26.60
2018-08-23T12:07:14.198Z,25.47
2018-08-23T12:08:19.778Z,25.90
2018-08-23T12:09:30.541Z,24.03
2018-08-23T12:10:36.023Z,24.17
2018-08-23T12:11:41.433Z,23.93
2018-08-23T12:12:48.497Z,23.97
2018-08-23T12:13:53.937Z,24.50
2018-08-23T12:15:03.144Z,22.50
2018-08-23T12:16:10.704Z,22.40
2018-08-23T12:17:17.075Z,20.87
2018-08-23T12:18:22.848Z,19.80
2018-08-23T12:19:28.248Z,16.97
2018-08-23T12:20:33.773Z,17.10
2018-08-23T12:21:39.241Z,20.03
2018-08-23T12:22:44.745Z,19.53
2018-08-23T12:23:50.259Z,18.80
2018-08-23T12:24:55.778Z,18.60
2018-08-23T12:26:01.503Z,17.40
2018-08-23T12:27:06.899Z,18.07
2018-08-23T12:28:17.607Z,18.67
2018-08-23T12:29:23.163Z,16.03
2018-08-23T12:30:28.774Z,14.90
2018-08-23T12:31:34.245Z,15.17
2018-08-23T12:32:39.709Z,16.47
2018-08-23T12:33:45.778Z,15.90
2018-08-23T12:34:52.431Z,15.57
2018-08-23T12:35:58.010Z,16.40
2018-08-23T12:37:08.678Z,16.80
2018-08-23T12:39:25.563Z,17.90
2018-08-23T12:40:37.667Z,17.10
2018-08-23T12:41:49.987Z,16.30
2018-08-23T12:42:55.562Z,17.83
2018-08-23T12:44:01.022Z,15.87
2018-08-23T12:45:06.565Z,16.93
2018-08-23T12:46:13.228Z,16.10
2018-08-23T12:47:18.746Z,15.73
2018-08-23T12:48:24.234Z,15.50
2018-08-23T12:49:29.972Z,18.27
2018-08-23T12:50:36.338Z,15.73
2018-08-23T12:51:41.810Z,17.07
2018-08-23T12:52:47.369Z,16.63
2018-08-23T12:53:52.903Z,14.97
2018-08-23T12:54:58.357Z,16.90
2018-08-23T12:56:03.805Z,15.90
2018-08-23T12:57:09.485Z,18.03
2018-08-23T12:58:16.095Z,16.20
2018-08-23T12:59:21.590Z,16.27
2018-08-23T13:00:27.010Z,15.37
2018-08-23T13:01:32.555Z,15.43
2018-08-23T13:02:38.024Z,15.80
2018-08-23T13:03:43.446Z,15.97
2018-08-23T13:04:49.268Z,15.17
2018-08-23T13:05:54.766Z,15.80
2018-08-23T13:07:00.253Z,15.33
2018-08-23T13:08:06.732Z,16.80
2018-08-23T13:09:12.165Z,18.40
2018-08-23T13:10:18.095Z,16.20
2018-08-23T13:11:23.674Z,17.10
2018-08-23T13:12:29.191Z,16.07
2018-08-23T13:13:34.635Z,15.90
2018-08-23T13:14:40.061Z,16.73
2018-08-23T13:15:45.667Z,16.83
2018-08-23T13:16:51.214Z,16.90
2018-08-23T13:17:56.654Z,16.13
2018-08-23T13:19:02.068Z,16.37
2018-08-23T13:20:07.634Z,13.83
2018-08-23T13:21:13.151Z,15.63
2018-08-23T13:22:23.829Z,15.03
2018-08-23T13:23:29.288Z,15.60
2018-08-23T13:24:38.814Z,16.27
2018-08-23T13:25:49.311Z,15.07
2018-08-23T13:26:54.885Z,16.13
2018-08-23T13:28:00.370Z,16.37
2018-08-23T13:29:05.959Z,17.23
2018-08-23T13:30:11.506Z,16.20
2018-08-23T13:31:17.353Z,15.73
2018-08-23T13:32:22.793Z,17.67
2018-08-23T13:33:28.224Z,18.07
2018-08-23T13:34:35.218Z,16.80
2018-08-23T13:35:40.716Z,16.77
2018-08-23T13:36:46.537Z,15.13
2018-08-23T13:37:51.974Z,16.80
2018-08-23T13:38:57.503Z,16.73
2018-08-23T13:40:03.022Z,15.03
2018-08-23T13:41:08.517Z,15.47
2018-08-23T13:42:14.010Z,14.80
2018-08-23T13:43:19.507Z,14.40
2018-08-23T13:44:24.945Z,14.90
2018-08-23T13:45:30.508Z,16.80
2018-08-23T13:46:36.046Z,16.23
2018-08-23T13:47:41.477Z,16.83
2018-08-23T13:48:47.167Z,17.13
2018-08-23T13:49:52.754Z,17.63
2018-08-23T13:50:58.211Z,18.03
2018-08-23T13:52:03.800Z,16.00
2018-08-23T13:53:09.335Z,16.20
2018-08-23T13:54:14.939Z,16.90
2018-08-23T13:55:20.798Z,16.30
2018-08-23T13:56:27.346Z,17.20
2018-08-23T13:57:32.851Z,16.97
2018-08-23T13:58:38.317Z,15.53
2018-08-23T13:59:44.077Z,16.37
2018-08-23T14:00:49.686Z,16.90
2018-08-23T14:01:55.306Z,16.20
2018-08-23T14:03:01.101Z,16.13
2018-08-23T14:04:07.012Z,16.43
2018-08-23T14:05:12.552Z,15.90
2018-08-23T14:06:18.146Z,17.23
2018-08-23T14:07:23.671Z,18.97
2018-08-23T14:08:29.029Z,19.63
2018-08-23T14:09:34.470Z,18.90
2018-08-23T14:10:39.881Z,17.70
2018-08-23T14:11:45.795Z,17.73
2018-08-23T14:12:51.789Z,17.80
2018-08-23T14:13:57.264Z,18.67
2018-08-23T14:15:02.769Z,17.00
2018-08-23T14:16:08.411Z,17.43
2018-08-23T14:17:13.899Z,17.63
2018-08-23T14:18:19.663Z,17.07
2018-08-23T14:19:25.217Z,17.40
2018-08-23T14:20:30.581Z,17.37
2018-08-23T14:21:36.090Z,18.20
2018-08-23T14:22:41.590Z,18.70
2018-08-23T14:23:47.112Z,16.80
2018-08-23T14:24:52.658Z,17.33
2018-08-23T14:25:58.122Z,16.77